sensor_id;sensor_type;location;lat;lon;timestamp;P1;durP1;ratioP1;P2;durP2;ratioP2
58294;SDS011;45705;55.592;37.460;2023-04-15T00:00:51;2.47;;;1.10;;
58294;SDS011;45705;55.592;37.460;2023-04-15T00:03:18;4.25;;;1.45;;
58294;SDS011;45705;55.592;37.460;2023-04-15T00:05:44;3.38;;;1.20;;
58294;SDS011;45705;55.592;37.460;2023-04-15T00:08:10;3.28;;;1.30;;
58294;SDS011;45705;55.592;37.460;2023-04-15T00:10:37;3.95;;;1.33;;
58294;SDS011;45705;55.592;37.460;2023-04-15T00:13:02;4.63;;;1.63;;
58294;SDS011;45705;55.592;37.460;2023-04-15T00:15:28;4.15;;;1.70;;
58294;SDS011;45705;55.592;37.460;2023-04-15T00:17:54;2.90;;;1.70;;
58294;SDS011;45705;55.592;37.460;2023-04-15T00:20:20;1.65;;;1.25;;
58294;SDS011;45705;55.592;37.460;2023-04-15T00:22:45;2.60;;;1.63;;
58294;SDS011;45705;55.592;37.460;2023-04-15T00:25:11;2.42;;;1.08;;
58294;SDS011;45705;55.592;37.460;2023-04-15T00:27:37;3.30;;;1.65;;
58294;SDS011;45705;55.592;37.460;2023-04-15T00:30:03;2.22;;;1.40;;
58294;SDS011;45705;55.592;37.460;2023-04-15T00:32:29;1.98;;;1.40;;
58294;SDS011;45705;55.592;37.460;2023-04-15T00:34:55;2.00;;;1.50;;
58294;SDS011;45705;55.592;37.460;2023-04-15T00:37:22;1.73;;;1.30;;
58294;SDS011;45705;55.592;37.460;2023-04-15T00:39:48;2.38;;;1.60;;
58294;SDS011;45705;55.592;37.460;2023-04-15T00:42:14;5.40;;;1.75;;
58294;SDS011;45705;55.592;37.460;2023-04-15T00:44:40;3.15;;;1.58;;
58294;SDS011;45705;55.592;37.460;2023-04-15T00:47:06;2.97;;;1.60;;
58294;SDS011;45705;55.592;37.460;2023-04-15T00:49:34;3.00;;;1.20;;
58294;SDS011;45705;55.592;37.460;2023-04-15T00:52:00;2.10;;;1.35;;
58294;SDS011;45705;55.592;37.460;2023-04-15T00:54:26;3.42;;;1.67;;
58294;SDS011;45705;55.592;37.460;2023-04-15T00:56:51;4.00;;;1.73;;
58294;SDS011;45705;55.592;37.460;2023-04-15T00:59:17;3.10;;;1.40;;
58294;SDS011;45705;55.592;37.460;2023-04-15T01:01:44;3.78;;;1.50;;
58294;SDS011;45705;55.592;37.460;2023-04-15T01:04:11;2.85;;;1.20;;
58294;SDS011;45705;55.592;37.460;2023-04-15T01:06:37;2.00;;;1.10;;
58294;SDS011;45705;55.592;37.460;2023-04-15T01:09:03;4.50;;;1.52;;
58294;SDS011;45705;55.592;37.460;2023-04-15T01:11:30;2.40;;;1.52;;
58294;SDS011;45705;55.592;37.460;2023-04-15T01:13:59;2.05;;;1.25;;
58294;SDS011;45705;55.592;37.460;2023-04-15T01:16:25;2.70;;;1.50;;
58294;SDS011;45705;55.592;37.460;2023-04-15T01:18:52;3.17;;;1.65;;
58294;SDS011;45705;55.592;37.460;2023-04-15T01:21:19;3.03;;;1.40;;
58294;SDS011;45705;55.592;37.460;2023-04-15T01:23:46;2.00;;;1.40;;
58294;SDS011;45705;55.592;37.460;2023-04-15T01:26:13;2.75;;;1.40;;
58294;SDS011;45705;55.592;37.460;2023-04-15T01:28:41;3.17;;;1.40;;
58294;SDS011;45705;55.592;37.460;2023-04-15T01:31:11;1.88;;;1.40;;
58294;SDS011;45705;55.592;37.460;2023-04-15T01:33:38;3.78;;;1.45;;
58294;SDS011;45705;55.592;37.460;2023-04-15T01:36:24;5.90;;;1.67;;
58294;SDS011;45705;55.592;37.460;2023-04-15T01:38:52;3.53;;;1.20;;
58294;SDS011;45705;55.592;37.460;2023-04-15T01:41:23;3.50;;;1.40;;
58294;SDS011;45705;55.592;37.460;2023-04-15T01:43:52;2.40;;;1.40;;
58294;SDS011;45705;55.592;37.460;2023-04-15T01:46:19;3.25;;;1.60;;
58294;SDS011;45705;55.592;37.460;2023-04-15T01:48:46;3.92;;;1.50;;
58294;SDS011;45705;55.592;37.460;2023-04-15T01:51:13;3.78;;;1.50;;
58294;SDS011;45705;55.592;37.460;2023-04-15T01:53:41;2.58;;;1.65;;
58294;SDS011;45705;55.592;37.460;2023-04-15T01:56:08;5.25;;;1.75;;
58294;SDS011;45705;55.592;37.460;2023-04-15T01:58:35;2.67;;;1.70;;
58294;SDS011;45705;55.592;37.460;2023-04-15T02:01:02;4.18;;;1.50;;
58294;SDS011;45705;55.592;37.460;2023-04-15T02:03:31;3.33;;;1.50;;
58294;SDS011;45705;55.592;37.460;2023-04-15T02:05:59;3.85;;;1.50;;
58294;SDS011;45705;55.592;37.460;2023-04-15T02:08:28;2.38;;;1.33;;
58294;SDS011;45705;55.592;37.460;2023-04-15T02:10:55;2.72;;;1.63;;
58294;SDS011;45705;55.592;37.460;2023-04-15T02:13:22;6.35;;;1.30;;
58294;SDS011;45705;55.592;37.460;2023-04-15T02:15:49;4.97;;;1.50;;
58294;SDS011;45705;55.592;37.460;2023-04-15T02:18:19;5.30;;;1.58;;
58294;SDS011;45705;55.592;37.460;2023-04-15T02:20:46;3.10;;;1.85;;
58294;SDS011;45705;55.592;37.460;2023-04-15T02:23:14;8.00;;;1.77;;
58294;SDS011;45705;55.592;37.460;2023-04-15T02:25:43;3.53;;;1.63;;
58294;SDS011;45705;55.592;37.460;2023-04-15T02:28:11;2.22;;;1.30;;
58294;SDS011;45705;55.592;37.460;2023-04-15T02:30:38;4.47;;;1.50;;
58294;SDS011;45705;55.592;37.460;2023-04-15T02:33:06;3.63;;;1.95;;
58294;SDS011;45705;55.592;37.460;2023-04-15T02:35:33;3.25;;;1.30;;
58294;SDS011;45705;55.592;37.460;2023-04-15T02:38:02;7.28;;;1.70;;
58294;SDS011;45705;55.592;37.460;2023-04-15T02:40:29;10.50;;;2.15;;
58294;SDS011;45705;55.592;37.460;2023-04-15T02:42:56;6.13;;;2.28;;
58294;SDS011;45705;55.592;37.460;2023-04-15T02:45:23;3.13;;;1.60;;
58294;SDS011;45705;55.592;37.460;2023-04-15T02:47:53;4.03;;;1.80;;
58294;SDS011;45705;55.592;37.460;2023-04-15T02:50:20;7.28;;;2.17;;
58294;SDS011;45705;55.592;37.460;2023-04-15T02:52:49;3.47;;;1.77;;
58294;SDS011;45705;55.592;37.460;2023-04-15T02:55:16;6.82;;;2.42;;
58294;SDS011;45705;55.592;37.460;2023-04-15T02:57:43;3.85;;;2.00;;
58294;SDS011;45705;55.592;37.460;2023-04-15T03:00:11;2.67;;;1.35;;
58294;SDS011;45705;55.592;37.460;2023-04-15T03:02:42;2.88;;;1.75;;
58294;SDS011;45705;55.592;37.460;2023-04-15T03:05:11;4.55;;;1.75;;
58294;SDS011;45705;55.592;37.460;2023-04-15T03:07:40;4.85;;;1.83;;
58294;SDS011;45705;55.592;37.460;2023-04-15T03:10:07;3.03;;;1.67;;
58294;SDS011;45705;55.592;37.460;2023-04-15T03:12:34;3.88;;;1.65;;
58294;SDS011;45705;55.592;37.460;2023-04-15T03:15:02;3.22;;;1.60;;
58294;SDS011;45705;55.592;37.460;2023-04-15T03:17:36;7.45;;;1.60;;
58294;SDS011;45705;55.592;37.460;2023-04-15T03:20:04;2.30;;;1.55;;
58294;SDS011;45705;55.592;37.460;2023-04-15T03:22:32;2.75;;;1.60;;
58294;SDS011;45705;55.592;37.460;2023-04-15T03:24:59;10.23;;;2.13;;
58294;SDS011;45705;55.592;37.460;2023-04-15T03:27:27;5.45;;;1.70;;
58294;SDS011;45705;55.592;37.460;2023-04-15T03:29:59;2.25;;;1.63;;
58294;SDS011;45705;55.592;37.460;2023-04-15T03:32:27;3.83;;;1.75;;
58294;SDS011;45705;55.592;37.460;2023-04-15T03:34:54;5.68;;;1.70;;
58294;SDS011;45705;55.592;37.460;2023-04-15T03:37:20;3.83;;;1.70;;
58294;SDS011;45705;55.592;37.460;2023-04-15T03:39:47;3.72;;;1.60;;
58294;SDS011;45705;55.592;37.460;2023-04-15T03:42:14;3.05;;;1.40;;
58294;SDS011;45705;55.592;37.460;2023-04-15T03:44:42;2.92;;;1.40;;
58294;SDS011;45705;55.592;37.460;2023-04-15T03:47:08;4.32;;;2.25;;
58294;SDS011;45705;55.592;37.460;2023-04-15T03:49:35;6.13;;;1.90;;
58294;SDS011;45705;55.592;37.460;2023-04-15T03:52:02;3.17;;;1.70;;
58294;SDS011;45705;55.592;37.460;2023-04-15T03:54:29;3.08;;;1.75;;
58294;SDS011;45705;55.592;37.460;2023-04-15T03:56:57;4.43;;;1.70;;
58294;SDS011;45705;55.592;37.460;2023-04-15T03:59:23;4.50;;;2.00;;
58294;SDS011;45705;55.592;37.460;2023-04-15T04:01:50;4.55;;;2.00;;
58294;SDS011;45705;55.592;37.460;2023-04-15T04:04:17;7.45;;;1.98;;
58294;SDS011;45705;55.592;37.460;2023-04-15T04:06:44;8.45;;;2.00;;
58294;SDS011;45705;55.592;37.460;2023-04-15T04:09:11;5.18;;;1.70;;
58294;SDS011;45705;55.592;37.460;2023-04-15T04:11:38;3.60;;;1.73;;
58294;SDS011;45705;55.592;37.460;2023-04-15T04:14:05;3.05;;;1.80;;
58294;SDS011;45705;55.592;37.460;2023-04-15T04:16:32;4.93;;;2.25;;
58294;SDS011;45705;55.592;37.460;2023-04-15T04:18:59;3.25;;;1.52;;
58294;SDS011;45705;55.592;37.460;2023-04-15T04:21:26;3.20;;;1.85;;
58294;SDS011;45705;55.592;37.460;2023-04-15T04:23:53;5.97;;;1.80;;
58294;SDS011;45705;55.592;37.460;2023-04-15T04:26:22;4.43;;;1.83;;
58294;SDS011;45705;55.592;37.460;2023-04-15T04:28:49;4.70;;;1.85;;
58294;SDS011;45705;55.592;37.460;2023-04-15T04:31:16;2.15;;;1.70;;
58294;SDS011;45705;55.592;37.460;2023-04-15T04:33:43;5.20;;;2.10;;
58294;SDS011;45705;55.592;37.460;2023-04-15T04:36:10;4.25;;;1.95;;
58294;SDS011;45705;55.592;37.460;2023-04-15T04:38:37;4.68;;;1.83;;
58294;SDS011;45705;55.592;37.460;2023-04-15T04:41:04;4.80;;;2.10;;
58294;SDS011;45705;55.592;37.460;2023-04-15T04:43:31;3.53;;;2.10;;
58294;SDS011;45705;55.592;37.460;2023-04-15T04:45:58;4.88;;;1.98;;
58294;SDS011;45705;55.592;37.460;2023-04-15T04:48:25;6.15;;;2.13;;
58294;SDS011;45705;55.592;37.460;2023-04-15T04:50:52;4.78;;;1.83;;
58294;SDS011;45705;55.592;37.460;2023-04-15T04:53:19;4.28;;;1.95;;
58294;SDS011;45705;55.592;37.460;2023-04-15T04:55:46;7.95;;;1.98;;
58294;SDS011;45705;55.592;37.460;2023-04-15T04:58:13;7.32;;;2.63;;
58294;SDS011;45705;55.592;37.460;2023-04-15T05:00:41;4.03;;;1.90;;
58294;SDS011;45705;55.592;37.460;2023-04-15T05:03:08;4.22;;;2.17;;
58294;SDS011;45705;55.592;37.460;2023-04-15T05:05:35;4.95;;;1.80;;
58294;SDS011;45705;55.592;37.460;2023-04-15T05:08:04;5.45;;;1.80;;
58294;SDS011;45705;55.592;37.460;2023-04-15T05:10:31;3.03;;;1.77;;
58294;SDS011;45705;55.592;37.460;2023-04-15T05:12:59;4.10;;;1.88;;
58294;SDS011;45705;55.592;37.460;2023-04-15T05:15:26;4.63;;;1.73;;
58294;SDS011;45705;55.592;37.460;2023-04-15T05:17:53;4.82;;;1.80;;
58294;SDS011;45705;55.592;37.460;2023-04-15T05:20:20;6.85;;;2.17;;
58294;SDS011;45705;55.592;37.460;2023-04-15T05:22:47;5.75;;;2.00;;
58294;SDS011;45705;55.592;37.460;2023-04-15T05:25:14;7.68;;;2.97;;
58294;SDS011;45705;55.592;37.460;2023-04-15T05:27:42;9.23;;;2.15;;
58294;SDS011;45705;55.592;37.460;2023-04-15T05:30:09;3.35;;;1.70;;
58294;SDS011;45705;55.592;37.460;2023-04-15T05:32:36;9.27;;;2.10;;
58294;SDS011;45705;55.592;37.460;2023-04-15T05:35:03;10.18;;;2.40;;
58294;SDS011;45705;55.592;37.460;2023-04-15T05:37:31;3.25;;;1.65;;
58294;SDS011;45705;55.592;37.460;2023-04-15T05:39:57;6.63;;;2.40;;
58294;SDS011;45705;55.592;37.460;2023-04-15T05:42:24;5.47;;;1.90;;
58294;SDS011;45705;55.592;37.460;2023-04-15T05:44:51;4.82;;;1.88;;
58294;SDS011;45705;55.592;37.460;2023-04-15T05:47:18;13.45;;;2.15;;
58294;SDS011;45705;55.592;37.460;2023-04-15T05:49:45;6.05;;;2.40;;
58294;SDS011;45705;55.592;37.460;2023-04-15T05:52:12;4.55;;;1.63;;
58294;SDS011;45705;55.592;37.460;2023-04-15T05:54:39;9.05;;;1.98;;
58294;SDS011;45705;55.592;37.460;2023-04-15T05:57:06;3.88;;;1.90;;
58294;SDS011;45705;55.592;37.460;2023-04-15T05:59:34;4.60;;;2.10;;
58294;SDS011;45705;55.592;37.460;2023-04-15T06:02:00;4.00;;;2.10;;
58294;SDS011;45705;55.592;37.460;2023-04-15T06:04:28;9.70;;;2.10;;
58294;SDS011;45705;55.592;37.460;2023-04-15T06:06:55;5.82;;;2.63;;
58294;SDS011;45705;55.592;37.460;2023-04-15T06:09:22;9.25;;;2.22;;
58294;SDS011;45705;55.592;37.460;2023-04-15T06:11:50;6.97;;;2.17;;
58294;SDS011;45705;55.592;37.460;2023-04-15T06:14:17;10.48;;;2.67;;
58294;SDS011;45705;55.592;37.460;2023-04-15T06:16:44;3.95;;;2.30;;
58294;SDS011;45705;55.592;37.460;2023-04-15T06:19:11;4.93;;;1.73;;
58294;SDS011;45705;55.592;37.460;2023-04-15T06:21:38;13.68;;;2.33;;
58294;SDS011;45705;55.592;37.460;2023-04-15T06:24:06;3.53;;;2.20;;
58294;SDS011;45705;55.592;37.460;2023-04-15T06:26:33;4.40;;;2.47;;
58294;SDS011;45705;55.592;37.460;2023-04-15T06:28:59;8.57;;;2.85;;
58294;SDS011;45705;55.592;37.460;2023-04-15T06:31:26;10.95;;;2.55;;
58294;SDS011;45705;55.592;37.460;2023-04-15T06:33:53;5.47;;;1.77;;
58294;SDS011;45705;55.592;37.460;2023-04-15T06:36:21;3.58;;;1.73;;
58294;SDS011;45705;55.592;37.460;2023-04-15T06:38:47;8.95;;;3.08;;
58294;SDS011;45705;55.592;37.460;2023-04-15T06:41:14;4.45;;;2.10;;
58294;SDS011;45705;55.592;37.460;2023-04-15T06:43:41;4.55;;;2.20;;
58294;SDS011;45705;55.592;37.460;2023-04-15T06:46:08;6.78;;;1.90;;
58294;SDS011;45705;55.592;37.460;2023-04-15T06:48:36;8.55;;;1.90;;
58294;SDS011;45705;55.592;37.460;2023-04-15T06:51:03;8.85;;;2.60;;
58294;SDS011;45705;55.592;37.460;2023-04-15T06:53:30;5.88;;;1.85;;
58294;SDS011;45705;55.592;37.460;2023-04-15T06:55:57;3.47;;;1.98;;
58294;SDS011;45705;55.592;37.460;2023-04-15T06:58:24;7.18;;;2.53;;
58294;SDS011;45705;55.592;37.460;2023-04-15T07:00:51;6.00;;;1.90;;
58294;SDS011;45705;55.592;37.460;2023-04-15T07:03:18;6.88;;;2.10;;
58294;SDS011;45705;55.592;37.460;2023-04-15T07:05:45;6.15;;;1.88;;
58294;SDS011;45705;55.592;37.460;2023-04-15T07:08:12;4.47;;;2.28;;
58294;SDS011;45705;55.592;37.460;2023-04-15T07:10:39;3.72;;;2.03;;
58294;SDS011;45705;55.592;37.460;2023-04-15T07:13:07;5.13;;;2.47;;
58294;SDS011;45705;55.592;37.460;2023-04-15T07:15:34;4.55;;;2.30;;
58294;SDS011;45705;55.592;37.460;2023-04-15T07:18:01;6.03;;;2.42;;
58294;SDS011;45705;55.592;37.460;2023-04-15T07:20:28;4.25;;;2.38;;
58294;SDS011;45705;55.592;37.460;2023-04-15T07:22:55;7.40;;;2.90;;
58294;SDS011;45705;55.592;37.460;2023-04-15T07:25:22;9.52;;;2.60;;
58294;SDS011;45705;55.592;37.460;2023-04-15T07:27:49;10.55;;;2.10;;
58294;SDS011;45705;55.592;37.460;2023-04-15T07:30:16;9.40;;;2.08;;
58294;SDS011;45705;55.592;37.460;2023-04-15T07:32:43;5.43;;;2.50;;
58294;SDS011;45705;55.592;37.460;2023-04-15T07:35:10;8.65;;;2.67;;
58294;SDS011;45705;55.592;37.460;2023-04-15T07:37:37;9.38;;;2.67;;
58294;SDS011;45705;55.592;37.460;2023-04-15T07:40:04;8.93;;;2.50;;
58294;SDS011;45705;55.592;37.460;2023-04-15T07:42:33;5.18;;;2.17;;
58294;SDS011;45705;55.592;37.460;2023-04-15T07:45:00;5.43;;;2.35;;
58294;SDS011;45705;55.592;37.460;2023-04-15T07:47:27;8.52;;;2.35;;
58294;SDS011;45705;55.592;37.460;2023-04-15T07:49:54;2.65;;;1.63;;
58294;SDS011;45705;55.592;37.460;2023-04-15T07:52:21;17.00;;;2.40;;
58294;SDS011;45705;55.592;37.460;2023-04-15T07:54:48;14.90;;;2.17;;
58294;SDS011;45705;55.592;37.460;2023-04-15T07:57:15;6.10;;;2.28;;
58294;SDS011;45705;55.592;37.460;2023-04-15T07:59:43;5.77;;;2.40;;
58294;SDS011;45705;55.592;37.460;2023-04-15T08:02:10;2.60;;;1.70;;
58294;SDS011;45705;55.592;37.460;2023-04-15T08:07:16;5.38;;;1.98;;
58294;SDS011;45705;55.592;37.460;2023-04-15T08:09:43;5.35;;;2.00;;
58294;SDS011;45705;55.592;37.460;2023-04-15T08:12:11;13.77;;;2.60;;
58294;SDS011;45705;55.592;37.460;2023-04-15T08:14:39;10.27;;;2.78;;
58294;SDS011;45705;55.592;37.460;2023-04-15T08:17:06;5.63;;;1.92;;
58294;SDS011;45705;55.592;37.460;2023-04-15T08:19:33;6.00;;;2.03;;
58294;SDS011;45705;55.592;37.460;2023-04-15T08:21:59;4.13;;;1.83;;
58294;SDS011;45705;55.592;37.460;2023-04-15T08:24:27;3.28;;;1.70;;
58294;SDS011;45705;55.592;37.460;2023-04-15T08:26:54;5.47;;;2.03;;
58294;SDS011;45705;55.592;37.460;2023-04-15T08:29:22;10.23;;;2.50;;
58294;SDS011;45705;55.592;37.460;2023-04-15T08:31:49;7.28;;;2.20;;
58294;SDS011;45705;55.592;37.460;2023-04-15T08:34:16;6.25;;;1.90;;
58294;SDS011;45705;55.592;37.460;2023-04-15T08:36:43;4.35;;;1.92;;
58294;SDS011;45705;55.592;37.460;2023-04-15T08:39:10;6.00;;;2.78;;
58294;SDS011;45705;55.592;37.460;2023-04-15T08:41:47;7.82;;;2.25;;
58294;SDS011;45705;55.592;37.460;2023-04-15T08:44:22;6.10;;;2.65;;
58294;SDS011;45705;55.592;37.460;2023-04-15T08:46:51;8.15;;;2.10;;
58294;SDS011;45705;55.592;37.460;2023-04-15T08:49:19;5.03;;;2.20;;
58294;SDS011;45705;55.592;37.460;2023-04-15T08:51:48;6.65;;;2.58;;
58294;SDS011;45705;55.592;37.460;2023-04-15T08:54:15;12.07;;;2.83;;
58294;SDS011;45705;55.592;37.460;2023-04-15T08:56:42;8.38;;;2.30;;
58294;SDS011;45705;55.592;37.460;2023-04-15T08:59:10;5.55;;;2.30;;
58294;SDS011;45705;55.592;37.460;2023-04-15T09:01:38;4.90;;;2.38;;
58294;SDS011;45705;55.592;37.460;2023-04-15T09:04:06;8.60;;;2.40;;
58294;SDS011;45705;55.592;37.460;2023-04-15T09:06:33;6.63;;;2.83;;
58294;SDS011;45705;55.592;37.460;2023-04-15T09:09:00;9.07;;;2.70;;
58294;SDS011;45705;55.592;37.460;2023-04-15T09:11:28;5.68;;;2.13;;
58294;SDS011;45705;55.592;37.460;2023-04-15T09:13:57;5.68;;;2.45;;
58294;SDS011;45705;55.592;37.460;2023-04-15T09:16:23;4.03;;;2.70;;
58294;SDS011;45705;55.592;37.460;2023-04-15T09:18:50;7.72;;;2.38;;
58294;SDS011;45705;55.592;37.460;2023-04-15T09:21:17;4.43;;;2.30;;
58294;SDS011;45705;55.592;37.460;2023-04-15T09:23:54;8.32;;;2.40;;
58294;SDS011;45705;55.592;37.460;2023-04-15T09:26:33;11.38;;;2.95;;
58294;SDS011;45705;55.592;37.460;2023-04-15T09:29:06;7.13;;;3.50;;
58294;SDS011;45705;55.592;37.460;2023-04-15T09:34:04;5.28;;;2.83;;
58294;SDS011;45705;55.592;37.460;2023-04-15T09:36:37;9.43;;;3.20;;
58294;SDS011;45705;55.592;37.460;2023-04-15T09:39:14;8.18;;;3.55;;
58294;SDS011;45705;55.592;37.460;2023-04-15T09:41:41;3.67;;;2.05;;
58294;SDS011;45705;55.592;37.460;2023-04-15T09:44:22;7.07;;;2.80;;
58294;SDS011;45705;55.592;37.460;2023-04-15T09:46:50;8.75;;;2.92;;
58294;SDS011;45705;55.592;37.460;2023-04-15T09:49:17;7.65;;;3.10;;
58294;SDS011;45705;55.592;37.460;2023-04-15T09:51:45;8.35;;;2.90;;
58294;SDS011;45705;55.592;37.460;2023-04-15T09:54:12;10.38;;;3.05;;
58294;SDS011;45705;55.592;37.460;2023-04-15T09:56:45;3.63;;;2.25;;
58294;SDS011;45705;55.592;37.460;2023-04-15T09:59:12;9.35;;;2.90;;
58294;SDS011;45705;55.592;37.460;2023-04-15T10:01:39;6.55;;;2.75;;
58294;SDS011;45705;55.592;37.460;2023-04-15T10:04:07;10.40;;;3.33;;
58294;SDS011;45705;55.592;37.460;2023-04-15T10:06:36;6.37;;;3.03;;
58294;SDS011;45705;55.592;37.460;2023-04-15T10:09:03;5.10;;;2.75;;
58294;SDS011;45705;55.592;37.460;2023-04-15T10:11:32;9.02;;;3.15;;
58294;SDS011;45705;55.592;37.460;2023-04-15T10:14:00;5.05;;;2.85;;
58294;SDS011;45705;55.592;37.460;2023-04-15T10:16:28;5.82;;;2.63;;
58294;SDS011;45705;55.592;37.460;2023-04-15T10:18:59;9.55;;;3.83;;
58294;SDS011;45705;55.592;37.460;2023-04-15T10:21:27;7.57;;;3.00;;
58294;SDS011;45705;55.592;37.460;2023-04-15T10:23:56;5.90;;;3.10;;
58294;SDS011;45705;55.592;37.460;2023-04-15T10:26:23;4.85;;;3.13;;
58294;SDS011;45705;55.592;37.460;2023-04-15T10:28:51;10.18;;;2.40;;
58294;SDS011;45705;55.592;37.460;2023-04-15T10:31:19;5.80;;;2.90;;
58294;SDS011;45705;55.592;37.460;2023-04-15T10:33:47;5.00;;;2.63;;
58294;SDS011;45705;55.592;37.460;2023-04-15T10:36:15;11.98;;;3.08;;
58294;SDS011;45705;55.592;37.460;2023-04-15T10:38:44;7.78;;;3.00;;
58294;SDS011;45705;55.592;37.460;2023-04-15T10:43:44;5.65;;;2.30;;
58294;SDS011;45705;55.592;37.460;2023-04-15T10:46:15;6.05;;;2.10;;
58294;SDS011;45705;55.592;37.460;2023-04-15T10:48:50;5.88;;;2.60;;
58294;SDS011;45705;55.592;37.460;2023-04-15T10:51:25;10.85;;;2.83;;
58294;SDS011;45705;55.592;37.460;2023-04-15T10:54:00;5.47;;;2.70;;
58294;SDS011;45705;55.592;37.460;2023-04-15T10:56:28;6.25;;;2.25;;
58294;SDS011;45705;55.592;37.460;2023-04-15T10:58:57;4.90;;;2.35;;
58294;SDS011;45705;55.592;37.460;2023-04-15T11:12:58;9.50;;;3.00;;
58294;SDS011;45705;55.592;37.460;2023-04-15T11:15:40;6.22;;;2.47;;
58294;SDS011;45705;55.592;37.460;2023-04-15T11:18:23;4.75;;;2.05;;
58294;SDS011;45705;55.592;37.460;2023-04-15T11:20:55;4.22;;;2.15;;
58294;SDS011;45705;55.592;37.460;2023-04-15T11:26:02;4.03;;;2.40;;
58294;SDS011;45705;55.592;37.460;2023-04-15T11:28:32;4.88;;;2.15;;
58294;SDS011;45705;55.592;37.460;2023-04-15T11:33:56;5.70;;;2.10;;
58294;SDS011;45705;55.592;37.460;2023-04-15T11:36:25;4.90;;;2.33;;
58294;SDS011;45705;55.592;37.460;2023-04-15T11:38:54;3.63;;;2.00;;
58294;SDS011;45705;55.592;37.460;2023-04-15T11:41:22;6.20;;;2.10;;
58294;SDS011;45705;55.592;37.460;2023-04-15T11:43:50;5.30;;;1.95;;
58294;SDS011;45705;55.592;37.460;2023-04-15T11:46:18;10.45;;;2.40;;
58294;SDS011;45705;55.592;37.460;2023-04-15T11:48:46;15.60;;;6.43;;
58294;SDS011;45705;55.592;37.460;2023-04-15T11:51:13;10.73;;;4.22;;
58294;SDS011;45705;55.592;37.460;2023-04-15T11:56:15;6.65;;;2.38;;
58294;SDS011;45705;55.592;37.460;2023-04-15T11:58:46;9.60;;;2.70;;
58294;SDS011;45705;55.592;37.460;2023-04-15T12:01:14;3.70;;;1.90;;
58294;SDS011;45705;55.592;37.460;2023-04-15T12:03:40;4.57;;;2.17;;
58294;SDS011;45705;55.592;37.460;2023-04-15T12:11:28;6.22;;;2.22;;
58294;SDS011;45705;55.592;37.460;2023-04-15T12:14:07;6.53;;;2.45;;
58294;SDS011;45705;55.592;37.460;2023-04-15T12:16:41;6.78;;;2.50;;
58294;SDS011;45705;55.592;37.460;2023-04-15T12:19:10;10.88;;;3.10;;
58294;SDS011;45705;55.592;37.460;2023-04-15T12:21:38;10.18;;;3.30;;
58294;SDS011;45705;55.592;37.460;2023-04-15T12:24:06;6.50;;;3.35;;
58294;SDS011;45705;55.592;37.460;2023-04-15T12:26:35;7.72;;;3.45;;
58294;SDS011;45705;55.592;37.460;2023-04-15T12:29:11;8.77;;;3.03;;
58294;SDS011;45705;55.592;37.460;2023-04-15T12:31:51;10.57;;;3.25;;
58294;SDS011;45705;55.592;37.460;2023-04-15T12:34:29;14.82;;;3.28;;
58294;SDS011;45705;55.592;37.460;2023-04-15T12:37:01;7.05;;;2.75;;
58294;SDS011;45705;55.592;37.460;2023-04-15T12:39:30;5.97;;;2.60;;
58294;SDS011;45705;55.592;37.460;2023-04-15T12:41:59;9.88;;;2.70;;
58294;SDS011;45705;55.592;37.460;2023-04-15T12:44:26;4.80;;;2.30;;
58294;SDS011;45705;55.592;37.460;2023-04-15T12:46:52;5.65;;;2.50;;
58294;SDS011;45705;55.592;37.460;2023-04-15T12:49:21;7.68;;;2.95;;
58294;SDS011;45705;55.592;37.460;2023-04-15T12:51:49;8.60;;;3.08;;
58294;SDS011;45705;55.592;37.460;2023-04-15T12:54:16;6.97;;;2.92;;
58294;SDS011;45705;55.592;37.460;2023-04-15T12:56:43;10.93;;;3.25;;
58294;SDS011;45705;55.592;37.460;2023-04-15T12:59:13;8.10;;;3.25;;
58294;SDS011;45705;55.592;37.460;2023-04-15T13:01:40;4.25;;;2.65;;
58294;SDS011;45705;55.592;37.460;2023-04-15T13:04:06;6.68;;;3.30;;
58294;SDS011;45705;55.592;37.460;2023-04-15T13:06:32;5.07;;;2.58;;
58294;SDS011;45705;55.592;37.460;2023-04-15T13:08:58;8.07;;;3.17;;
58294;SDS011;45705;55.592;37.460;2023-04-15T13:11:26;6.53;;;3.20;;
58294;SDS011;45705;55.592;37.460;2023-04-15T13:13:53;10.05;;;3.50;;
58294;SDS011;45705;55.592;37.460;2023-04-15T13:16:21;6.40;;;3.65;;
58294;SDS011;45705;55.592;37.460;2023-04-15T13:18:48;9.07;;;3.40;;
58294;SDS011;45705;55.592;37.460;2023-04-15T13:21:13;8.88;;;3.30;;
58294;SDS011;45705;55.592;37.460;2023-04-15T13:23:40;6.25;;;2.95;;
58294;SDS011;45705;55.592;37.460;2023-04-15T13:26:06;6.97;;;3.65;;
58294;SDS011;45705;55.592;37.460;2023-04-15T13:28:32;13.20;;;3.92;;
58294;SDS011;45705;55.592;37.460;2023-04-15T13:30:58;7.25;;;2.65;;
58294;SDS011;45705;55.592;37.460;2023-04-15T13:33:25;11.00;;;2.78;;
58294;SDS011;45705;55.592;37.460;2023-04-15T13:35:52;5.10;;;2.70;;
58294;SDS011;45705;55.592;37.460;2023-04-15T13:38:17;3.53;;;2.17;;
58294;SDS011;45705;55.592;37.460;2023-04-15T13:40:43;5.45;;;2.50;;
58294;SDS011;45705;55.592;37.460;2023-04-15T13:43:09;6.32;;;2.47;;
58294;SDS011;45705;55.592;37.460;2023-04-15T13:45:35;7.55;;;2.60;;
58294;SDS011;45705;55.592;37.460;2023-04-15T13:48:01;3.53;;;2.25;;
58294;SDS011;45705;55.592;37.460;2023-04-15T13:50:27;6.10;;;2.70;;
58294;SDS011;45705;55.592;37.460;2023-04-15T13:52:53;6.80;;;3.17;;
58294;SDS011;45705;55.592;37.460;2023-04-15T13:55:19;11.73;;;3.55;;
58294;SDS011;45705;55.592;37.460;2023-04-15T13:57:45;6.32;;;2.70;;
58294;SDS011;45705;55.592;37.460;2023-04-15T14:00:11;6.55;;;3.25;;
58294;SDS011;45705;55.592;37.460;2023-04-15T14:02:38;9.02;;;3.33;;
58294;SDS011;45705;55.592;37.460;2023-04-15T14:05:04;6.32;;;4.00;;
58294;SDS011;45705;55.592;37.460;2023-04-15T14:07:30;3.72;;;2.45;;
58294;SDS011;45705;55.592;37.460;2023-04-15T14:09:56;10.40;;;3.33;;
58294;SDS011;45705;55.592;37.460;2023-04-15T14:12:22;6.32;;;3.05;;
58294;SDS011;45705;55.592;37.460;2023-04-15T14:14:48;6.72;;;3.22;;
58294;SDS011;45705;55.592;37.460;2023-04-15T14:17:14;7.55;;;2.58;;
58294;SDS011;45705;55.592;37.460;2023-04-15T14:19:39;9.80;;;3.35;;
58294;SDS011;45705;55.592;37.460;2023-04-15T14:22:05;12.73;;;4.28;;
58294;SDS011;45705;55.592;37.460;2023-04-15T14:24:31;4.68;;;2.58;;
58294;SDS011;45705;55.592;37.460;2023-04-15T14:26:57;5.38;;;3.05;;
58294;SDS011;45705;55.592;37.460;2023-04-15T14:29:23;10.15;;;4.28;;
58294;SDS011;45705;55.592;37.460;2023-04-15T14:31:49;7.68;;;3.53;;
58294;SDS011;45705;55.592;37.460;2023-04-15T14:34:15;11.85;;;3.97;;
58294;SDS011;45705;55.592;37.460;2023-04-15T14:36:41;6.18;;;3.03;;
58294;SDS011;45705;55.592;37.460;2023-04-15T14:39:07;5.88;;;2.88;;
58294;SDS011;45705;55.592;37.460;2023-04-15T14:41:34;7.40;;;3.75;;
58294;SDS011;45705;55.592;37.460;2023-04-15T14:43:59;8.05;;;3.65;;
58294;SDS011;45705;55.592;37.460;2023-04-15T14:46:25;8.65;;;3.72;;
58294;SDS011;45705;55.592;37.460;2023-04-15T14:48:51;6.50;;;2.40;;
58294;SDS011;45705;55.592;37.460;2023-04-15T14:51:17;4.93;;;2.58;;
58294;SDS011;45705;55.592;37.460;2023-04-15T14:53:43;6.32;;;2.72;;
58294;SDS011;45705;55.592;37.460;2023-04-15T14:56:10;9.63;;;2.92;;
58294;SDS011;45705;55.592;37.460;2023-04-15T14:58:35;5.43;;;2.33;;
58294;SDS011;45705;55.592;37.460;2023-04-15T15:01:02;5.38;;;2.85;;
58294;SDS011;45705;55.592;37.460;2023-04-15T15:03:28;10.02;;;3.55;;
58294;SDS011;45705;55.592;37.460;2023-04-15T15:05:55;9.32;;;3.40;;
58294;SDS011;45705;55.592;37.460;2023-04-15T15:08:22;3.08;;;2.22;;